Time;durP1;ratioP1;P1;durP2;ratioP2;P2;SDS_P1;SDS_P2;PMS_P1;PMS_P2;Temp;Humidity;BMP_temperature;BMP_pressure;BME280_temperature;BME280_humidity;BME280_pressure;Samples;Min_cycle;Max_cycle;Signal;HPM_P1;HPM_P2
2022/07/23 00:00:34;;;;;;;;;12.25;10.75;;;;;22.54;68.80;101521.81;4962452;28;45239;-59
2022/07/23 00:02:59;;;;;;;;;28.75;22.75;;;;;22.53;68.79;101522.81;4977036;28;46724;-59
2022/07/23 00:05:25;;;;;;;;;24.00;23.00;;;;;22.53;68.33;101523.66;4962061;28;45218;-59
2022/07/23 00:07:51;;;;;;;;;25.00;20.75;;;;;22.54;68.15;101516.44;4962361;28;45455;-59
2022/07/23 00:10:16;;;;;;;;;23.75;19.50;;;;;22.55;68.38;101518.97;4962410;28;45457;-59
2022/07/23 00:12:42;;;;;;;;;20.00;19.00;;;;;22.57;68.44;101521.50;4961986;28;45587;-59
2022/07/23 00:15:08;;;;;;;;;25.00;21.00;;;;;22.58;68.58;101520.50;4976682;28;45378;-59
2022/07/23 00:17:34;;;;;;;;;27.00;23.50;;;;;22.59;68.68;101522.19;4961913;28;45369;-59
2022/07/23 00:20:00;;;;;;;;;20.75;19.50;;;;;22.60;68.23;101515.84;4961951;28;45585;-59
2022/07/23 00:22:25;;;;;;;;;23.00;21.25;;;;;22.61;68.48;101509.47;4961173;28;45394;-59
2022/07/23 00:24:51;;;;;;;;;26.25;21.25;;;;;22.64;68.58;101513.69;4961726;28;45389;-59
2022/07/23 00:27:16;;;;;;;;;25.50;22.75;;;;;22.65;68.46;101518.06;4962159;28;45299;-59
2022/07/23 00:29:42;;;;;;;;;21.00;18.25;;;;;22.64;68.37;101513.69;4961696;28;45196;-59
2022/07/23 00:32:07;;;;;;;;;22.75;20.75;;;;;22.64;68.25;101519.91;4961621;28;45484;-59
2022/07/23 00:34:33;;;;;;;;;20.75;20.00;;;;;22.66;68.28;101517.91;4961688;28;45252;-59
2022/07/23 00:36:58;;;;;;;;;22.75;20.75;;;;;22.66;68.46;101512.53;4959553;28;45559;-59
2022/07/23 00:39:24;;;;;;;;;19.00;19.00;;;;;22.64;68.49;101513.69;4946708;28;45492;-59
2022/07/23 00:41:50;;;;;;;;;30.00;25.00;;;;;22.62;68.38;101508.47;4961739;28;45992;-59
2022/07/23 00:44:21;;;;;;;;;23.00;21.50;;;;;22.62;68.54;101515.69;4961324;28;45426;-59
2022/07/23 00:46:52;;;;;;;;;29.50;23.00;;;;;22.61;68.67;101512.16;4961524;28;45248;-59
2022/07/23 00:49:19;;;;;;;;;25.75;23.75;;;;;22.61;69.06;101503.25;4961641;28;46698;-59
2022/07/23 00:51:44;;;;;;;;;30.00;18.75;;;;;22.58;68.73;101505.22;4961690;28;46163;-59
2022/07/23 00:54:10;;;;;;;;;23.75;19.75;;;;;22.59;68.94;101511.44;4961221;28;45370;-59
2022/07/23 00:56:37;;;;;;;;;22.75;19.00;;;;;22.57;68.64;101503.53;4961791;28;45326;-59
2022/07/23 00:59:02;;;;;;;;;26.75;20.50;;;;;22.58;68.38;101502.53;4961498;28;45208;-59
2022/07/23 01:01:28;;;;;;;;;18.75;18.00;;;;;22.56;68.67;101501.84;4961383;28;45472;-59
2022/07/23 01:03:53;;;;;;;;;19.75;19.00;;;;;22.53;68.42;101499.50;4961516;28;45282;-59
2022/07/23 01:06:19;;;;;;;;;25.25;18.50;;;;;22.51;68.18;101501.47;4961593;28;45515;-59
2022/07/23 01:08:45;;;;;;;;;18.00;16.50;;;;;22.49;68.61;101503.44;4961571;28;45190;-59
2022/07/23 01:11:12;;;;;;;;;21.00;18.50;;;;;22.50;68.71;101505.13;4961427;28;46309;-59
2022/07/23 01:13:42;;;;;;;;;19.50;17.00;;;;;22.50;68.29;101498.94;4961153;28;45381;-59
2022/07/23 01:16:07;;;;;;;;;19.50;18.00;;;;;22.48;68.24;101504.44;4961232;28;45237;-59
2022/07/23 01:18:33;;;;;;;;;22.50;19.25;;;;;22.46;67.99;101500.22;4961349;28;45408;-60
2022/07/23 01:20:58;;;;;;;;;19.25;16.25;;;;;22.44;68.35;101500.38;4961168;28;45496;-59
2022/07/23 01:23:24;;;;;;;;;21.50;19.00;;;;;22.44;67.91;101503.06;4961479;28;45253;-59
2022/07/23 01:25:52;;;;;;;;;19.75;18.00;;;;;22.45;68.19;101501.22;4961229;28;45471;-59
2022/07/23 01:28:18;;;;;;;;;23.00;15.25;;;;;22.47;68.29;101499.25;4961124;28;45551;-59
2022/07/23 01:30:44;;;;;;;;;20.00;20.00;;;;;22.46;68.30;101493.03;4961006;28;45353;-59
2022/07/23 01:33:10;;;;;;;;;22.00;19.75;;;;;22.49;68.18;101498.06;4960013;28;45378;-59
2022/07/23 01:35:35;;;;;;;;;19.25;19.25;;;;;22.51;68.02;101492.56;4964421;28;45281;-59
2022/07/23 01:38:01;;;;;;;;;22.00;19.00;;;;;22.51;68.00;101496.13;4953820;28;45297;-59
2022/07/23 01:40:26;;;;;;;;;17.75;16.50;;;;;22.53;68.59;101501.31;4957352;28;45812;-59
2022/07/23 01:42:52;;;;;;;;;25.50;22.25;;;;;22.53;68.10;101501.31;4964133;28;45322;-59
2022/07/23 01:45:17;;;;;;;;;21.25;18.50;;;;;22.52;68.49;101503.16;4964661;28;45128;-59
2022/07/23 01:47:43;;;;;;;;;21.50;19.00;;;;;22.50;68.48;101496.25;4964276;28;45246;-59
2022/07/23 01:50:08;;;;;;;;;23.75;19.50;;;;;22.50;68.46;101496.25;4964136;28;46228;-59
2022/07/23 01:52:34;;;;;;;;;19.75;19.50;;;;;22.47;68.24;101497.41;4964074;28;45252;-59
2022/07/23 01:55:00;;;;;;;;;17.25;17.25;;;;;22.48;68.32;101493.72;4979233;28;45528;-59
2022/07/23 01:57:25;;;;;;;;;22.00;19.25;;;;;22.50;68.49;101486.34;4964305;28;45372;-59
2022/07/23 01:59:50;;;;;;;;;19.00;19.00;;;;;22.52;68.53;101496.97;4963999;28;45318;-59
2022/07/23 02:02:16;;;;;;;;;24.50;20.50;;;;;22.50;68.30;101488.19;4963995;28;45247;-59
2022/07/23 02:04:41;;;;;;;;;26.50;24.25;;;;;22.51;68.31;101487.19;4964226;28;45359;-61
2022/07/23 02:07:07;;;;;;;;;18.50;18.25;;;;;22.52;68.71;101489.75;4964043;28;45483;-59
2022/07/23 02:09:32;;;;;;;;;15.00;14.75;;;;;22.51;68.29;101488.06;4963777;28;46211;-59
2022/07/23 02:11:58;;;;;;;;;25.00;21.75;;;;;22.52;68.42;101484.38;4963792;28;45304;-59
2022/07/23 02:14:25;;;;;;;;;28.25;25.00;;;;;22.51;68.65;101481.81;4963741;28;45326;-59
2022/07/23 02:16:50;;;;;;;;;25.50;22.25;;;;;22.49;68.34;101492.72;4963689;28;45440;-59
2022/07/23 02:19:16;;;;;;;;;26.50;24.50;;;;;22.48;68.57;101488.34;4963678;28;46409;-59
2022/07/23 02:21:41;;;;;;;;;25.25;25.25;;;;;22.46;68.93;101487.66;4963907;28;45252;-59
2022/07/23 02:24:07;;;;;;;;;25.75;22.50;;;;;22.45;68.24;101491.34;4963626;28;45232;-60
2022/07/23 02:26:34;;;;;;;;;27.75;23.50;;;;;22.43;68.57;101496.00;4963946;28;45265;-59
2022/07/23 02:29:01;;;;;;;;;27.50;26.00;;;;;22.42;68.74;101493.47;4963236;28;45259;-59
2022/07/23 02:31:28;;;;;;;;;26.50;23.25;;;;;22.40;68.70;101493.63;4963410;28;45289;-59
2022/07/23 02:33:53;;;;;;;;;24.50;23.00;;;;;22.37;68.98;101495.75;4963562;28;45310;-59
2022/07/23 02:36:18;;;;;;;;;23.50;21.50;;;;;22.31;68.62;101502.56;4963304;28;45588;-59
2022/07/23 02:38:44;;;;;;;;;30.50;24.25;;;;;22.29;68.88;101500.03;4946912;28;45960;-59
2022/07/23 02:41:09;;;;;;;;;28.50;24.00;;;;;22.29;68.96;101512.63;4962484;28;45251;-59
2022/07/23 02:43:35;;;;;;;;;24.75;22.75;;;;;22.25;68.75;101517.41;4963384;28;45523;-59
2022/07/23 02:46:00;;;;;;;;;25.25;21.25;;;;;22.21;68.94;101521.41;4962993;28;45222;-59
2022/07/23 02:48:26;;;;;;;;;21.00;19.25;;;;;22.17;68.83;101514.63;4963176;28;45497;-59
2022/07/23 02:50:52;;;;;;;;;22.00;20.25;;;;;22.15;69.11;101510.41;4963396;28;45319;-58
2022/07/23 02:53:18;;;;;;;;;25.25;20.50;;;;;22.15;68.94;101513.09;4963481;28;45267;-60
2022/07/23 02:55:43;;;;;;;;;19.75;17.50;;;;;22.14;69.00;101509.56;4963335;28;45231;-59
2022/07/23 02:58:09;;;;;;;;;20.25;18.75;;;;;22.12;69.00;101518.72;4963014;28;45391;-59
2022/07/23 03:00:34;;;;;;;;;20.50;17.25;;;;;22.12;69.03;101516.03;4963169;28;45212;-59
2022/07/23 03:02:59;;;;;;;;;19.75;19.75;;;;;22.12;68.79;101519.59;4963297;28;45157;-59
2022/07/23 03:05:25;;;;;;;;;17.75;16.00;;;;;22.12;69.26;101524.97;4963299;28;45167;-59
2022/07/23 03:07:50;;;;;;;;;19.00;16.75;;;;;22.14;69.30;101532.88;4962997;28;45257;-59
2022/07/23 03:10:16;;;;;;;;;19.75;19.00;;;;;22.17;69.13;101537.94;4962939;28;45255;-60
2022/07/23 03:12:41;;;;;;;;;20.75;16.00;;;;;22.18;68.98;101534.25;4963253;28;45224;-60
2022/07/23 03:15:08;;;;;;;;;19.25;16.50;;;;;22.16;68.84;101530.88;4962976;28;45303;-59
2022/07/23 03:17:33;;;;;;;;;16.75;16.25;;;;;22.14;69.09;101536.41;4962714;28;45448;-59
2022/07/23 03:19:59;;;;;;;;;16.75;16.00;;;;;22.12;68.69;101533.03;4962728;28;45352;-59
2022/07/23 03:22:24;;;;;;;;;20.00;17.50;;;;;22.13;68.96;101531.19;4961737;28;45346;-59
2022/07/23 03:24:56;;;;;;;;;18.75;14.50;;;;;22.11;68.98;101528.63;4962685;28;45275;-59
2022/07/23 03:27:23;;;;;;;;;19.75;17.75;;;;;22.14;69.04;101524.81;4962705;28;46363;-59
2022/07/23 03:29:50;;;;;;;;;19.25;16.75;;;;;22.17;68.74;101535.25;4960986;28;45330;-59
2022/07/23 03:32:15;;;;;;;;;21.50;16.00;;;;;22.20;69.14;101543.88;4962846;28;45419;-59
2022/07/23 03:34:41;;;;;;;;;18.75;18.75;;;;;22.23;68.97;101543.56;4962616;28;45682;-59
2022/07/23 03:37:06;;;;;;;;;25.00;20.25;;;;;22.24;69.25;101549.78;4959101;28;46517;-59
2022/07/23 03:39:32;;;;;;;;;20.00;17.50;;;;;22.23;68.42;101540.88;4948276;28;45168;-59
2022/07/23 03:41:57;;;;;;;;;19.00;15.25;;;;;22.23;68.77;101542.72;4962725;28;45443;-59
2022/07/23 03:44:23;;;;;;;;;16.75;16.75;;;;;22.21;68.49;101540.19;4962343;28;45227;-59
2022/07/23 03:46:48;;;;;;;;;21.75;16.50;;;;;22.21;68.43;101542.88;4961008;28;46950;-59
2022/07/23 03:49:14;;;;;;;;;20.75;17.25;;;;;22.15;68.28;101540.78;4962320;28;45432;-59
2022/07/23 03:51:39;;;;;;;;;22.75;20.75;;;;;22.14;68.16;101547.13;4962555;28;45183;-59
2022/07/23 03:54:05;;;;;;;;;18.00;15.50;;;;;22.12;68.49;101541.06;4962348;28;45223;-59
2022/07/23 03:56:30;;;;;;;;;17.50;16.50;;;;;22.09;67.92;101544.03;4962238;28;45210;-58
2022/07/23 03:58:56;;;;;;;;;20.50;16.75;;;;;22.05;67.70;101549.81;4961281;28;45396;-59
2022/07/23 04:01:22;;;;;;;;;20.75;19.00;;;;;21.98;67.79;101546.88;4962379;28;45431;-58
2022/07/23 04:03:47;;;;;;;;;19.50;18.75;;;;;21.98;67.50;101552.22;4962365;28;45344;-59
2022/07/23 04:06:13;;;;;;;;;18.50;17.50;;;;;21.96;67.45;101549.69;4962129;28;45637;-58
2022/07/23 04:08:38;;;;;;;;;18.00;16.50;;;;;21.95;67.50;101555.19;4962086;28;45254;-59
2022/07/23 04:11:04;;;;;;;;;25.00;13.25;;;;;21.96;67.14;101551.50;4962509;28;45389;-59
2022/07/23 04:13:29;;;;;;;;;21.75;16.00;;;;;21.96;67.25;101556.88;4962096;28;45480;-58
2022/07/23 04:15:55;;;;;;;;;22.00;15.50;;;;;21.98;67.44;101562.97;4961837;28;45385;-59
2022/07/23 04:18:23;;;;;;;;;24.00;19.50;;;;;22.00;67.21;101564.50;4961819;28;45416;-59
2022/07/23 04:20:51;;;;;;;;;17.00;16.50;;;;;22.01;67.13;101570.72;4962136;28;45314;-59
2022/07/23 04:23:16;;;;;;;;;22.50;18.00;;;;;22.03;66.95;101566.88;4961892;28;45271;-59
2022/07/23 04:25:42;;;;;;;;;19.25;16.75;;;;;22.06;67.22;101570.28;4976771;28;46270;-59
2022/07/23 04:28:08;;;;;;;;;17.75;16.50;;;;;22.05;66.57;101565.91;4961653;28;45326;-59
2022/07/23 04:30:33;;;;;;;;;19.50;16.25;;;;;22.02;66.90;101562.50;4962272;28;45408;-58
2022/07/23 04:32:59;;;;;;;;;18.50;16.25;;;;;21.99;67.00;101570.88;4961834;28;45375;-59
2022/07/23 04:35:25;;;;;;;;;18.50;14.25;;;;;21.96;67.02;101570.28;4961766;28;46055;-59
2022/07/23 04:37:50;;;;;;;;;15.50;13.75;;;;;21.96;67.07;101570.28;4952411;28;45287;-59
2022/07/23 04:40:16;;;;;;;;;20.50;15.50;;;;;21.95;66.91;101568.59;4953637;28;45349;-58
2022/07/23 04:42:41;;;;;;;;;17.00;17.00;;;;;21.96;67.23;101570.28;4961669;28;45305;-59
2022/07/23 04:45:07;;;;;;;;;15.75;14.50;;;;;21.94;66.75;101573.13;4961697;28;45373;-59
2022/07/23 04:47:33;;;;;;;;;19.75;17.75;;;;;21.94;66.70;101573.13;4961616;28;45286;-59
2022/07/23 04:49:58;;;;;;;;;19.00;15.25;;;;;21.95;66.50;101573.97;4961839;28;45369;-58
2022/07/23 04:52:24;;;;;;;;;20.50;15.75;;;;;21.96;66.78;101581.91;4961830;28;45284;-59
2022/07/23 04:54:49;;;;;;;;;17.25;16.25;;;;;21.96;66.76;101578.34;4961614;28;45281;-58
2022/07/23 04:57:15;;;;;;;;;18.00;17.25;;;;;21.97;67.16;101585.44;4961578;28;45485;-59
2022/07/23 04:59:41;;;;;;;;;18.00;16.25;;;;;21.98;66.75;101584.44;4960284;28;45251;-59
2022/07/23 05:02:06;;;;;;;;;23.25;15.50;;;;;21.99;66.86;101578.91;4961680;28;45243;-59
2022/07/23 05:04:32;;;;;;;;;24.00;16.50;;;;;22.00;66.60;101582.44;4961386;28;46076;-58
2022/07/23 05:06:58;;;;;;;;;17.50;15.25;;;;;22.01;66.92;101581.44;4961521;28;45398;-59
2022/07/23 05:09:24;;;;;;;;;16.25;16.00;;;;;22.02;66.65;101583.13;4963245;28;45270;-58
2022/07/23 05:11:49;;;;;;;;;16.25;14.00;;;;;22.03;66.97;101577.63;4964891;28;45320;-59
2022/07/23 05:14:15;;;;;;;;;18.25;17.00;;;;;22.03;66.81;101580.31;4964449;28;45510;-59
2022/07/23 05:16:41;;;;;;;;;19.50;17.50;;;;;21.99;66.36;101584.28;4964501;28;45379;-59
2022/07/23 05:19:06;;;;;;;;;18.25;16.75;;;;;21.96;66.90;101584.56;4965196;28;45457;-59
2022/07/23 05:21:32;;;;;;;;;21.75;18.25;;;;;21.97;66.58;101585.44;4964682;28;45497;-59
2022/07/23 05:23:57;;;;;;;;;16.25;16.25;;;;;21.98;66.59;101585.28;4964721;28;45437;-59
2022/07/23 05:26:24;;;;;;;;;20.50;18.50;;;;;21.96;66.66;101576.53;4964410;28;45259;-59
2022/07/23 05:28:49;;;;;;;;;25.50;17.50;;;;;21.97;66.82;101580.06;4964393;28;45264;-59
2022/07/23 05:31:15;;;;;;;;;26.00;20.00;;;;;21.95;66.50;101579.34;4964442;28;45536;-59
2022/07/23 05:33:40;;;;;;;;;21.50;17.25;;;;;21.93;66.80;101568.75;4964681;28;45626;-59
2022/07/23 05:36:06;;;;;;;;;19.00;16.25;;;;;21.97;66.89;101580.06;4964230;28;45267;-59
2022/07/23 05:38:32;;;;;;;;;21.00;17.75;;;;;21.97;66.70;101577.38;4949741;28;45230;-59
2022/07/23 05:40:58;;;;;;;;;25.50;21.00;;;;;21.94;66.63;101575.81;4962073;28;45286;-59
2022/07/23 05:43:24;;;;;;;;;22.00;17.00;;;;;21.94;66.29;101583.00;4964189;28;45971;-60
2022/07/23 05:45:49;;;;;;;;;20.50;18.50;;;;;21.94;66.36;101580.31;4964136;28;45384;-59
2022/07/23 05:48:15;;;;;;;;;18.75;18.75;;;;;21.91;66.25;101580.63;4964456;28;45517;-59
2022/07/23 05:50:40;;;;;;;;;24.00;20.00;;;;;21.90;66.22;101582.47;4964444;28;45331;-59
2022/07/23 05:53:06;;;;;;;;;20.25;19.00;;;;;21.91;66.33;101581.47;4964216;28;46348;-59
2022/07/23 05:55:31;;;;;;;;;22.50;18.75;;;;;21.94;66.36;101586.53;4964052;28;45370;-59
2022/07/23 05:57:57;;;;;;;;;22.50;17.50;;;;;21.98;66.32;101589.78;4964132;28;45233;-59
2022/07/23 06:00:24;;;;;;;;;28.50;25.75;;;;;21.98;66.50;101587.97;4964241;28;45452;-59
2022/07/23 06:02:50;;;;;;;;;25.75;22.50;;;;;22.04;66.32;101594.59;4963830;28;45621;-59
2022/07/23 06:05:15;;;;;;;;;22.50;20.00;;;;;22.05;66.35;101588.22;4963795;28;45309;-59
2022/07/23 06:07:41;;;;;;;;;29.00;24.50;;;;;22.12;65.96;101592.06;4964128;28;45377;-59
2022/07/23 06:10:07;;;;;;;;;28.00;24.00;;;;;22.17;66.24;101591.59;4963953;28;45198;-59
2022/07/23 06:12:32;;;;;;;;;24.00;23.75;;;;;22.22;66.40;101590.19;4963555;28;45808;-59
2022/07/23 06:14:58;;;;;;;;;30.75;27.50;;;;;22.25;66.26;101597.94;4963952;28;45313;-59
2022/07/23 06:17:24;;;;;;;;;29.00;25.75;;;;;22.26;66.28;101599.63;4963855;28;45250;-59
2022/07/23 06:19:49;;;;;;;;;31.00;26.00;;;;;22.23;66.28;101602.63;4963517;28;45511;-59
2022/07/23 06:22:15;;;;;;;;;37.00;30.75;;;;;22.19;66.32;101603.03;4963289;28;46234;-59
2022/07/23 06:24:40;;;;;;;;;31.25;29.50;;;;;22.17;66.62;101605.03;4963598;28;45250;-59
2022/07/23 06:27:06;;;;;;;;;37.00;32.25;;;;;22.16;66.59;101611.38;4964049;28;45367;-59
2022/07/23 06:29:31;;;;;;;;;40.50;32.75;;;;;22.14;66.64;101611.53;4963507;28;45338;-59
2022/07/23 06:31:57;;;;;;;;;41.25;31.50;;;;;22.14;66.88;101610.69;4963553;28;45891;-59
2022/07/23 06:34:22;;;;;;;;;39.00;33.00;;;;;22.13;66.63;101609.84;4963476;28;45226;-59
2022/07/23 06:36:48;;;;;;;;;40.25;34.00;;;;;22.12;66.78;101613.53;4962945;28;45290;-59
2022/07/23 06:39:13;;;;;;;;;36.00;29.00;;;;;22.13;66.84;101614.38;4946844;28;45538;-59
2022/07/23 06:41:39;;;;;;;;;40.75;31.25;;;;;22.12;67.24;101615.34;4963591;28;45921;-59
2022/07/23 06:44:04;;;;;;;;;47.00;34.25;;;;;22.13;66.76;101619.75;4963098;28;45243;-59
2022/07/23 06:46:30;;;;;;;;;41.00;30.75;;;;;22.14;67.29;101624.13;4963483;28;45270;-59
2022/07/23 06:48:56;;;;;;;;;38.50;31.50;;;;;22.14;67.15;101624.97;4963402;28;45513;-59
2022/07/23 06:51:21;;;;;;;;;38.00;33.75;;;;;22.16;67.23;101622.13;4963405;28;46096;-59
2022/07/23 06:53:47;;;;;;;;;39.50;32.75;;;;;22.15;67.62;101632.00;4963166;28;45355;-59
2022/07/23 06:56:12;;;;;;;;;44.00;34.00;;;;;22.14;67.42;101622.28;4963365;28;45390;-59
2022/07/23 06:58:38;;;;;;;;;38.75;32.50;;;;;22.14;67.74;101627.66;4961913;28;45464;-59
2022/07/23 07:01:03;;;;;;;;;39.25;33.50;;;;;22.14;67.40;101626.78;4963143;28;46317;-59
2022/07/23 07:03:29;;;;;;;;;46.00;35.25;;;;;22.15;67.59;101632.00;4963099;28;45237;-59
2022/07/23 07:05:57;;;;;;;;;38.50;31.75;;;;;22.16;67.42;101639.06;4963071;28;45402;-59
2022/07/23 07:08:22;;;;;;;;;45.25;36.25;;;;;22.18;67.51;101638.91;4963041;28;45934;-59
2022/07/23 07:10:48;;;;;;;;;45.25;34.75;;;;;22.19;67.67;101636.09;4963062;28;45262;-59
2022/07/23 07:13:13;;;;;;;;;46.50;38.50;;;;;22.19;67.77;101635.25;4962699;28;45227;-59
2022/07/23 07:15:39;;;;;;;;;51.00;36.75;;;;;22.19;67.88;101646.81;4963163;28;45309;-59
2022/07/23 07:18:04;;;;;;;;;49.75;36.50;;;;;22.23;68.01;101647.41;4962867;28;45211;-59
2022/07/23 07:20:30;;;;;;;;;47.50;38.00;;;;;22.25;67.78;101650.78;4962895;28;46199;-59
2022/07/23 07:22:55;;;;;;;;;55.75;40.50;;;;;22.29;68.08;101652.19;4962813;28;45335;-60
2022/07/23 07:25:21;;;;;;;;;47.75;38.75;;;;;22.32;68.35;101659.09;4962965;28;45221;-60
2022/07/23 07:27:46;;;;;;;;;50.75;42.25;;;;;22.31;68.10;101654.72;4962685;28;45212;-59
2022/07/23 07:30:12;;;;;;;;;50.00;38.75;;;;;22.31;68.29;101665.47;4962740;28;45294;-59
2022/07/23 07:32:38;;;;;;;;;51.50;39.00;;;;;22.34;67.75;101662.47;4962421;28;45366;-59
2022/07/23 07:35:05;;;;;;;;;49.00;38.00;;;;;22.39;68.49;101665.59;4962750;28;45357;-59
2022/07/23 07:37:30;;;;;;;;;54.50;41.00;;;;;22.43;67.95;101667.81;4956113;28;45306;-59
2022/07/23 07:39:56;;;;;;;;;50.25;37.75;;;;;22.47;67.80;101669.22;4950279;28;46411;-59
2022/07/23 07:42:21;;;;;;;;;50.50;40.00;;;;;22.51;68.11;101665.28;4962498;28;45270;-59
2022/07/23 07:44:47;;;;;;;;;55.00;41.25;;;;;22.52;67.98;101666.97;4962533;28;45294;-59
2022/07/23 07:47:15;;;;;;;;;60.75;44.25;;;;;22.54;67.87;101670.34;4962458;28;45239;-59
2022/07/23 07:49:41;;;;;;;;;52.25;39.00;;;;;22.54;67.95;101669.50;4962224;28;45353;-60
2022/07/23 07:52:06;;;;;;;;;55.25;40.75;;;;;22.55;68.01;101673.88;4962487;28;45223;-59
2022/07/23 07:54:32;;;;;;;;;53.50;42.50;;;;;22.53;67.68;101681.25;4962494;28;45151;-59
2022/07/23 07:56:57;;;;;;;;;50.00;41.00;;;;;22.55;68.06;101681.94;4962382;28;45452;-59
2022/07/23 07:59:23;;;;;;;;;49.50;40.25;;;;;22.56;68.05;101684.47;4962191;28;45269;-59
2022/07/23 08:01:48;;;;;;;;;53.50;41.50;;;;;22.60;68.08;101682.34;4962107;28;45266;-59
2022/07/23 08:04:14;;;;;;;;;51.50;39.50;;;;;22.65;68.22;101690.78;4962434;28;45399;-59
2022/07/23 08:06:39;;;;;;;;;50.75;40.25;;;;;22.71;68.01;101684.84;4962196;28;45467;-59
2022/07/23 08:09:05;;;;;;;;;51.75;41.50;;;;;22.73;67.78;101676.63;4962131;28;45525;-59
2022/07/23 08:11:30;;;;;;;;;56.75;40.50;;;;;22.78;67.94;101685.13;4962139;28;45247;-59
2022/07/23 08:13:56;;;;;;;;;53.50;40.25;;;;;22.83;67.38;101691.75;4962311;28;45325;-59
2022/07/23 08:16:21;;;;;;;;;54.50;41.00;;;;;22.87;67.58;101678.88;4962025;28;45260;-59
2022/07/23 08:18:47;;;;;;;;;51.25;39.25;;;;;22.92;67.44;101684.66;4961806;28;45298;-59
2022/07/23 08:21:12;;;;;;;;;51.25;39.00;;;;;22.96;67.38;101688.72;4961896;28;45345;-59
2022/07/23 08:23:38;;;;;;;;;53.50;39.75;;;;;22.97;66.99;101684.22;4962146;28;45420;-59
2022/07/23 08:26:04;;;;;;;;;47.50;36.00;;;;;22.98;66.62;101694.78;4962008;28;45464;-59
2022/07/23 08:28:32;;;;;;;;;50.75;38.75;;;;;23.00;66.74;101695.53;4961677;28;45148;-60
2022/07/23 08:30:58;;;;;;;;;51.00;38.75;;;;;23.01;66.41;101702.59;4961650;28;45498;-59
2022/07/23 08:33:24;;;;;;;;;49.00;39.25;;;;;23.01;66.68;101699.91;4962131;28;45389;-60
2022/07/23 08:35:52;;;;;;;;;46.50;36.50;;;;;23.05;66.37;101703.13;4961976;28;45337;-60
2022/07/23 08:38:20;;;;;;;;;46.25;38.25;;;;;23.09;66.73;101702.69;4948794;28;45742;-60
2022/07/23 08:40:48;;;;;;;;;52.25;38.50;;;;;23.19;66.09;101709.84;4957647;28;45448;-60
2022/07/23 08:43:20;;;;;;;;;51.00;36.75;;;;;23.31;65.92;101714.88;4961864;28;45333;-60
2022/07/23 08:45:51;;;;;;;;;45.25;34.50;;;;;23.44;65.67;101710.97;4964265;28;45307;-60
2022/07/23 08:48:23;;;;;;;;;45.50;36.25;;;;;23.53;65.32;101710.06;4965148;28;45344;-60
2022/07/23 08:50:53;;;;;;;;;49.00;34.00;;;;;23.62;65.10;101715.44;4965043;28;45383;-59
2022/07/23 08:53:20;;;;;;;;;52.00;38.25;;;;;23.71;65.23;101720.91;4965233;28;45220;-59
2022/07/23 08:55:47;;;;;;;;;48.00;35.75;;;;;23.72;65.50;101719.91;4965167;28;45590;-59
2022/07/23 08:58:14;;;;;;;;;48.25;36.75;;;;;23.74;64.94;101717.91;4963580;28;47102;-60
2022/07/23 09:00:39;;;;;;;;;51.75;39.00;;;;;23.73;65.26;101724.28;4964759;28;45273;-60
2022/07/23 09:03:05;;;;;;;;;46.25;37.75;;;;;23.72;65.42;101720.75;4964924;28;45483;-59
2022/07/23 09:05:30;;;;;;;;;47.25;38.50;;;;;23.73;65.38;101719.75;4964930;28;45302;-60
2022/07/23 09:08:15;;;;;;;;;47.25;37.50;;;;;23.73;65.42;101722.44;4964707;28;45443;-60
2022/07/23 09:10:44;;;;;;;;;47.00;39.00;;;;;23.76;65.30;101718.56;4964957;28;45263;-60
2022/07/23 09:13:24;;;;;;;;;48.50;36.50;;;;;23.81;64.86;101716.28;4964650;28;45397;-60
2022/07/23 09:15:52;;;;;;;;;47.25;36.50;;;;;23.90;64.99;101723.44;4964932;28;45322;-59
2022/07/23 09:18:17;;;;;;;;;49.75;35.25;;;;;23.94;64.81;101717.59;4964468;28;45388;-59
2022/07/23 09:20:46;;;;;;;;;46.25;36.50;;;;;24.01;64.71;101717.81;4963475;28;45238;-59
2022/07/23 09:23:11;;;;;;;;;45.25;36.25;;;;;24.06;64.16;101712.81;4964699;28;45238;-59
2022/07/23 09:25:37;;;;;;;;;47.25;36.25;;;;;24.13;63.79;101718.44;4964718;28;45497;-59
2022/07/23 09:28:02;;;;;;;;;44.50;35.75;;;;;24.17;64.00;101712.59;4964092;28;46325;-59
2022/07/23 09:30:31;;;;;;;;;48.50;35.50;;;;;24.20;63.85;101719.50;4964683;28;45285;-59
2022/07/23 09:33:20;;;;;;;;;46.50;37.00;;;;;24.28;63.94;101713.34;4964517;28;45318;-60
2022/07/23 09:35:45;;;;;;;;;48.00;35.00;;;;;24.35;63.34;101712.56;4963316;28;45379;-58
2022/07/23 09:38:11;;;;;;;;;41.25;34.75;;;;;24.37;63.27;101713.25;4952199;28;45417;-59
2022/07/23 09:40:37;;;;;;;;;33.75;30.50;;;;;24.38;62.99;101711.41;4958915;28;45298;-59
2022/07/23 09:43:02;;;;;;;;;46.50;34.75;;;;;24.38;62.82;101712.25;4964461;28;45338;-60
2022/07/23 09:45:28;;;;;;;;;39.50;32.50;;;;;24.37;63.00;101713.25;4964399;28;45556;-60
2022/07/23 09:48:11;;;;;;;;;49.50;37.00;;;;;24.38;63.02;101714.09;4964044;28;45591;-59
2022/07/23 09:50:36;;;;;;;;;45.25;33.50;;;;;24.42;62.51;101710.94;4963923;28;45244;-60
2022/07/23 09:53:02;;;;;;;;;48.25;35.50;;;;;24.45;63.07;101713.31;4964458;28;45427;-58
2022/07/23 09:55:36;;;;;;;;;42.25;33.50;;;;;24.44;62.77;101713.47;4962913;28;45453;-60
2022/07/23 09:58:03;;;;;;;;;44.25;32.75;;;;;24.39;62.74;101711.25;4963935;28;46162;-60
2022/07/23 10:00:31;;;;;;;;;41.50;32.75;;;;;24.37;62.25;101709.72;4964097;28;45484;-59
2022/07/23 10:02:57;;;;;;;;;40.75;32.25;;;;;24.36;62.03;101716.13;4964137;28;45468;-59
2022/07/23 10:05:24;;;;;;;;;43.50;33.50;;;;;24.39;62.08;101708.56;4964088;28;45194;-59
2022/07/23 10:07:51;;;;;;;;;43.50;33.50;;;;;24.46;62.08;101712.31;4964015;28;46272;-59
2022/07/23 10:10:17;;;;;;;;;39.75;33.25;;;;;24.52;62.02;101708.16;4963827;28;45286;-60
2022/07/23 10:15:30;;;;;;;;;39.75;32.25;;;;;24.68;61.42;101702.00;4964168;28;45341;-59
2022/07/23 10:17:56;;;;;;;;;40.00;34.00;;;;;24.82;61.56;101703.28;4963552;28;45475;-58
2022/07/23 10:20:22;;;;;;;;;42.50;32.50;;;;;24.97;61.44;101705.22;4964047;28;45415;-59
2022/07/23 10:23:09;;;;;;;;;45.25;35.75;;;;;25.10;60.91;101706.63;4962260;28;45418;-60
2022/07/23 10:25:45;;;;;;;;;42.00;31.75;;;;;25.18;61.03;101707.50;4963864;28;45247;-60
2022/07/23 10:28:26;;;;;;;;;42.50;31.50;;;;;25.22;60.70;101700.78;4963385;28;45286;-60
2022/07/23 10:31:17;;;;;;;;;42.25;32.25;;;;;25.19;59.97;101698.41;4963414;28;45377;-60
2022/07/23 10:34:04;;;;;;;;;41.00;33.00;;;;;25.15;60.10;101691.66;4963977;28;45616;-60
2022/07/23 10:36:54;;;;;;;;;36.25;32.00;;;;;25.14;59.97;101699.91;4963860;28;45484;-60
2022/07/23 10:39:28;;;;;;;;;41.00;33.75;;;;;25.08;60.02;101698.72;4960736;28;45264;-60
2022/07/23 10:42:10;;;;;;;;;37.00;31.75;;;;;25.02;60.00;101716.34;4963769;28;45234;-60
2022/07/23 10:44:47;;;;;;;;;40.25;33.50;;;;;24.98;60.14;101722.22;4963440;28;45353;-60
2022/07/23 10:49:51;;;;;;;;;43.25;31.75;;;;;24.91;60.13;101723.88;4963284;28;45909;-59
2022/07/23 10:52:22;;;;;;;;;34.25;31.50;;;;;24.90;60.32;101731.13;4963296;28;45191;-59
2022/07/23 10:54:50;;;;;;;;;35.00;30.25;;;;;24.92;59.97;101739.88;4963585;28;45407;-60
2022/07/23 10:57:17;;;;;;;;;35.50;30.00;;;;;24.95;60.06;101736.84;4963161;28;45462;-60
2022/07/23 11:00:22;;;;;;;;;37.75;32.50;;;;;25.01;59.92;101740.78;4963129;28;46298;-60
2022/07/23 11:02:48;;;;;;;;;34.75;32.25;;;;;25.09;59.84;101742.69;4962877;28;45255;-59
2022/07/23 11:05:16;;;;;;;;;36.75;31.00;;;;;25.16;60.03;101744.59;4963086;28;45393;-59
2022/07/23 11:08:04;;;;;;;;;44.25;32.00;;;;;25.33;59.88;101737.41;4963129;28;45298;-60
2022/07/23 11:10:37;;;;;;;;;37.00;28.50;;;;;25.49;59.38;101745.53;4962969;28;45704;-60
2022/07/23 11:13:21;;;;;;;;;40.50;32.75;;;;;25.60;59.24;101744.41;4962769;28;45254;-60